Terminal Aerodrome Forecast
Issued by NWS

Current Version | Previous Version | Graphics & Text | Print | Product List | Glossary On
Versions: 1 2 3 4 5 6 7 8 9 10 11 12 13 14
979
FTUS41 KPBZ 260405 AAB
TAFHLG
TAF AMD
KHLG 260405Z 2604/2624 08008KT P6SM SKC
     FM260600 VRB03KT 5SM BR SKC
     FM260800 00000KT 2SM BR SCT015
     FM261400 16003KT P6SM SCT060=

USA.gov is the U.S. government's official web portal to all federal, state and local government web resources and services.